sensor_id;sensor_type;location;lat;lon;timestamp;pressure;altitude;pressure_sealevel;temperature;humidity
26711;BME280;18311;52.754;18.118;2023-01-15T00:00:17;99340.83;;;13.91;76.01
26711;BME280;18311;52.754;18.118;2023-01-15T00:02:50;99339.44;;;14.21;75.58
26711;BME280;18311;52.754;18.118;2023-01-15T00:05:21;99343.84;;;13.51;76.28
26711;BME280;18311;52.754;18.118;2023-01-15T00:07:52;99310.44;;;14.02;71.89
26711;BME280;18311;52.754;18.118;2023-01-15T00:10:22;99326.73;;;13.52;73.49
26711;BME280;18311;52.754;18.118;2023-01-15T00:12:52;99297.28;;;13.74;71.02
26711;BME280;18311;52.754;18.118;2023-01-15T00:15:23;99299.91;;;13.15;77.83
26711;BME280;18311;52.754;18.118;2023-01-15T00:17:55;99286.83;;;13.94;70.93
26711;BME280;18311;52.754;18.118;2023-01-15T00:20:27;99280.77;;;13.68;72.49
26711;BME280;18311;52.754;18.118;2023-01-15T00:23:06;99261.30;;;13.88;68.45
26711;BME280;18311;52.754;18.118;2023-01-15T00:25:38;99260.95;;;13.93;67.05
26711;BME280;18311;52.754;18.118;2023-01-15T00:28:26;99257.03;;;14.08;66.45
26711;BME280;18311;52.754;18.118;2023-01-15T00:30:56;99266.00;;;14.31;66.82
26711;BME280;18311;52.754;18.118;2023-01-15T00:33:27;99287.13;;;14.36;64.38
26711;BME280;18311;52.754;18.118;2023-01-15T00:35:57;99298.16;;;14.78;62.32
26711;BME280;18311;52.754;18.118;2023-01-15T00:38:28;99285.69;;;14.66;61.42
26711;BME280;18311;52.754;18.118;2023-01-15T00:40:58;99303.06;;;14.62;62.42
26711;BME280;18311;52.754;18.118;2023-01-15T00:43:29;99294.73;;;14.76;61.81
26711;BME280;18311;52.754;18.118;2023-01-15T00:45:59;99311.09;;;14.96;60.87
26711;BME280;18311;52.754;18.118;2023-01-15T00:48:30;99316.23;;;15.54;59.27
26711;BME280;18311;52.754;18.118;2023-01-15T00:51:01;99302.08;;;14.74;62.58
26711;BME280;18311;52.754;18.118;2023-01-15T00:53:32;99299.80;;;15.24;62.26
26711;BME280;18311;52.754;18.118;2023-01-15T00:56:03;99311.91;;;14.17;63.82
26711;BME280;18311;52.754;18.118;2023-01-15T00:58:33;99276.63;;;14.89;61.87
26711;BME280;18311;52.754;18.118;2023-01-15T01:01:03;99258.38;;;14.03;64.86
26711;BME280;18311;52.754;18.118;2023-01-15T01:03:34;99245.41;;;14.98;61.26
26711;BME280;18311;52.754;18.118;2023-01-15T01:06:05;99235.27;;;15.34;59.32
26711;BME280;18311;52.754;18.118;2023-01-15T01:08:35;99240.03;;;14.98;59.35
26711;BME280;18311;52.754;18.118;2023-01-15T01:11:11;99226.02;;;14.61;60.75
26711;BME280;18311;52.754;18.118;2023-01-15T01:13:43;99207.31;;;14.25;61.17
26711;BME280;18311;52.754;18.118;2023-01-15T01:16:31;99207.06;;;14.17;61.10
26711;BME280;18311;52.754;18.118;2023-01-15T01:19:13;99162.67;;;15.33;57.27
26711;BME280;18311;52.754;18.118;2023-01-15T01:21:44;99190.52;;;14.78;59.86
26711;BME280;18311;52.754;18.118;2023-01-15T01:24:17;99198.98;;;14.73;58.51
26711;BME280;18311;52.754;18.118;2023-01-15T01:26:49;99169.41;;;14.40;60.05
26711;BME280;18311;52.754;18.118;2023-01-15T01:29:22;99163.70;;;14.22;59.72
26711;BME280;18311;52.754;18.118;2023-01-15T01:31:52;99163.70;;;14.22;59.72
26711;BME280;18311;52.754;18.118;2023-01-15T01:34:23;99185.30;;;14.65;58.85
26711;BME280;18311;52.754;18.118;2023-01-15T01:36:53;99189.59;;;14.68;57.90
26711;BME280;18311;52.754;18.118;2023-01-15T01:39:24;99202.52;;;14.85;57.98
26711;BME280;18311;52.754;18.118;2023-01-15T01:41:54;99193.94;;;16.49;52.57
26711;BME280;18311;52.754;18.118;2023-01-15T01:47:10;99197.78;;;14.44;57.12
26711;BME280;18311;52.754;18.118;2023-01-15T01:49:41;99196.91;;;14.66;55.98
26711;BME280;18311;52.754;18.118;2023-01-15T01:52:18;99190.13;;;14.94;56.89
26711;BME280;18311;52.754;18.118;2023-01-15T01:54:49;99185.10;;;15.22;54.73
26711;BME280;18311;52.754;18.118;2023-01-15T01:57:20;99178.11;;;14.98;55.02
26711;BME280;18311;52.754;18.118;2023-01-15T01:59:51;99177.23;;;14.65;56.51
26711;BME280;18311;52.754;18.118;2023-01-15T02:02:22;99188.50;;;14.25;58.12
26711;BME280;18311;52.754;18.118;2023-01-15T02:04:53;99181.02;;;14.51;57.38
26711;BME280;18311;52.754;18.118;2023-01-15T02:07:24;99164.18;;;14.27;57.40
26711;BME280;18311;52.754;18.118;2023-01-15T02:09:55;99183.09;;;14.70;57.65
26711;BME280;18311;52.754;18.118;2023-01-15T02:12:33;99149.86;;;14.38;57.12
26711;BME280;18311;52.754;18.118;2023-01-15T02:15:25;99144.46;;;15.46;56.58
26711;BME280;18311;52.754;18.118;2023-01-15T02:20:51;99157.23;;;14.24;57.93
26711;BME280;18311;52.754;18.118;2023-01-15T02:29:07;99136.29;;;14.50;55.74
26711;BME280;18311;52.754;18.118;2023-01-15T02:31:40;99119.75;;;15.41;54.05
26711;BME280;18311;52.754;18.118;2023-01-15T02:34:15;99120.80;;;15.49;53.95
26711;BME280;18311;52.754;18.118;2023-01-15T02:36:47;99085.22;;;15.04;53.67
26711;BME280;18311;52.754;18.118;2023-01-15T02:39:19;99085.22;;;15.04;53.67
26711;BME280;18311;52.754;18.118;2023-01-15T02:41:53;99106.41;;;14.97;54.31
26711;BME280;18311;52.754;18.118;2023-01-15T02:44:26;99097.29;;;15.09;54.00
26711;BME280;18311;52.754;18.118;2023-01-15T02:46:59;99108.01;;;15.00;53.98
26711;BME280;18311;52.754;18.118;2023-01-15T02:49:32;99081.91;;;14.79;54.58
26711;BME280;18311;52.754;18.118;2023-01-15T02:52:07;99070.78;;;15.05;53.96
26711;BME280;18311;52.754;18.118;2023-01-15T02:54:46;99052.58;;;14.97;53.98
26711;BME280;18311;52.754;18.118;2023-01-15T02:57:16;99024.70;;;15.50;53.25
26711;BME280;18311;52.754;18.118;2023-01-15T02:59:48;99046.86;;;15.63;52.21
26711;BME280;18311;52.754;18.118;2023-01-15T03:02:24;99041.42;;;15.23;53.87
26711;BME280;18311;52.754;18.118;2023-01-15T03:04:59;99045.80;;;15.76;52.91
26711;BME280;18311;52.754;18.118;2023-01-15T03:07:39;99057.27;;;16.09;50.79
26711;BME280;18311;52.754;18.118;2023-01-15T03:10:10;99055.80;;;15.33;53.92
26711;BME280;18311;52.754;18.118;2023-01-15T03:12:49;99052.08;;;15.86;52.41
26711;BME280;18311;52.754;18.118;2023-01-15T03:18:42;99042.67;;;16.11;52.29
26711;BME280;18311;52.754;18.118;2023-01-15T03:21:14;99056.19;;;15.28;53.69
26711;BME280;18311;52.754;18.118;2023-01-15T03:23:50;99052.22;;;15.54;52.98
26711;BME280;18311;52.754;18.118;2023-01-15T03:26:21;99040.09;;;15.69;53.26
26711;BME280;18311;52.754;18.118;2023-01-15T03:28:52;99023.62;;;15.62;53.54
26711;BME280;18311;52.754;18.118;2023-01-15T03:31:22;99021.59;;;15.24;54.19
26711;BME280;18311;52.754;18.118;2023-01-15T03:33:53;99021.59;;;15.24;54.19
26711;BME280;18311;52.754;18.118;2023-01-15T03:36:24;99028.31;;;15.70;54.73
26711;BME280;18311;52.754;18.118;2023-01-15T03:38:57;99036.45;;;15.49;54.57
26711;BME280;18311;52.754;18.118;2023-01-15T03:44:13;99022.11;;;16.49;53.29
26711;BME280;18311;52.754;18.118;2023-01-15T03:47:06;99020.63;;;15.96;53.48
26711;BME280;18311;52.754;18.118;2023-01-15T03:49:42;99011.03;;;17.01;51.94
26711;BME280;18311;52.754;18.118;2023-01-15T03:52:21;99012.31;;;16.38;52.94
26711;BME280;18311;52.754;18.118;2023-01-15T03:55:08;99012.70;;;16.04;54.75
26711;BME280;18311;52.754;18.118;2023-01-15T04:00:21;98992.17;;;15.73;55.34
26711;BME280;18311;52.754;18.118;2023-01-15T04:02:54;99004.19;;;15.68;55.23
26711;BME280;18311;52.754;18.118;2023-01-15T04:05:25;99004.20;;;16.19;53.98
26711;BME280;18311;52.754;18.118;2023-01-15T04:07:58;99004.20;;;16.19;53.98
26711;BME280;18311;52.754;18.118;2023-01-15T04:10:29;98965.45;;;15.73;55.94
26711;BME280;18311;52.754;18.118;2023-01-15T04:12:59;98965.45;;;16.69;54.65
26711;BME280;18311;52.754;18.118;2023-01-15T04:15:30;98984.34;;;16.69;55.29
26711;BME280;18311;52.754;18.118;2023-01-15T04:18:00;98995.92;;;15.91;57.65
26711;BME280;18311;52.754;18.118;2023-01-15T04:20:31;98993.27;;;16.30;59.07
26711;BME280;18311;52.754;18.118;2023-01-15T04:23:01;99004.31;;;15.57;61.38
26711;BME280;18311;52.754;18.118;2023-01-15T04:25:32;98983.40;;;15.40;62.78
26711;BME280;18311;52.754;18.118;2023-01-15T04:28:02;98989.23;;;15.45;62.73
26711;BME280;18311;52.754;18.118;2023-01-15T04:30:33;98976.92;;;15.21;63.51
26711;BME280;18311;52.754;18.118;2023-01-15T04:33:04;98969.88;;;15.30;65.81
26711;BME280;18311;52.754;18.118;2023-01-15T04:35:34;98965.34;;;15.30;64.77
26711;BME280;18311;52.754;18.118;2023-01-15T04:38:06;98825.09;;;15.63;63.06
26711;BME280;18311;52.754;18.118;2023-01-15T04:40:37;98928.98;;;16.26;61.40
26711;BME280;18311;52.754;18.118;2023-01-15T04:43:25;98914.35;;;15.39;65.27
26711;BME280;18311;52.754;18.118;2023-01-15T04:46:13;98932.23;;;15.40;66.30
26711;BME280;18311;52.754;18.118;2023-01-15T04:48:45;98927.59;;;15.52;65.79
26711;BME280;18311;52.754;18.118;2023-01-15T04:51:15;98933.69;;;15.54;67.43
26711;BME280;18311;52.754;18.118;2023-01-15T04:53:46;98933.69;;;15.54;67.43
26711;BME280;18311;52.754;18.118;2023-01-15T04:56:16;98923.63;;;15.65;66.36
26711;BME280;18311;52.754;18.118;2023-01-15T04:58:47;98931.08;;;15.33;67.58
26711;BME280;18311;52.754;18.118;2023-01-15T05:01:18;98931.08;;;15.33;67.58
26711;BME280;18311;52.754;18.118;2023-01-15T05:03:48;98925.27;;;15.78;66.51
26711;BME280;18311;52.754;18.118;2023-01-15T05:06:19;98934.27;;;15.57;69.10
26711;BME280;18311;52.754;18.118;2023-01-15T05:08:49;98915.94;;;15.51;69.53
26711;BME280;18311;52.754;18.118;2023-01-15T05:11:20;98904.14;;;16.12;67.79
26711;BME280;18311;52.754;18.118;2023-01-15T05:13:50;98905.34;;;15.59;69.37
26711;BME280;18311;52.754;18.118;2023-01-15T05:16:23;98892.50;;;15.32;72.55
26711;BME280;18311;52.754;18.118;2023-01-15T05:18:57;98899.24;;;15.57;71.53
26711;BME280;18311;52.754;18.118;2023-01-15T05:21:30;98872.44;;;15.94;73.04
26711;BME280;18311;52.754;18.118;2023-01-15T05:24:04;98872.44;;;15.56;73.00
26711;BME280;18311;52.754;18.118;2023-01-15T05:26:37;98901.02;;;15.78;71.34
26711;BME280;18311;52.754;18.118;2023-01-15T05:29:07;98906.92;;;15.72;72.49
26711;BME280;18311;52.754;18.118;2023-01-15T05:31:38;98907.16;;;15.49;75.25
26711;BME280;18311;52.754;18.118;2023-01-15T05:34:10;98907.98;;;14.99;77.52
26711;BME280;18311;52.754;18.118;2023-01-15T05:36:41;98873.77;;;15.15;74.74
26711;BME280;18311;52.754;18.118;2023-01-15T05:39:11;98873.77;;;15.81;74.80
26711;BME280;18311;52.754;18.118;2023-01-15T05:41:42;98904.55;;;16.37;74.18
26711;BME280;18311;52.754;18.118;2023-01-15T05:44:22;98868.25;;;16.12;76.84
26711;BME280;18311;52.754;18.118;2023-01-15T05:46:56;98893.77;;;15.88;78.51
26711;BME280;18311;52.754;18.118;2023-01-15T05:49:28;98890.05;;;15.70;85.16
26711;BME280;18311;52.754;18.118;2023-01-15T05:52:00;98888.91;;;15.22;94.24
26711;BME280;18311;52.754;18.118;2023-01-15T05:54:33;98888.91;;;15.22;100.00
26711;BME280;18311;52.754;18.118;2023-01-15T05:57:03;98893.66;;;15.99;100.00
26711;BME280;18311;52.754;18.118;2023-01-15T05:59:34;98875.20;;;16.04;100.00
26711;BME280;18311;52.754;18.118;2023-01-15T06:02:04;98897.75;;;16.23;100.00
26711;BME280;18311;52.754;18.118;2023-01-15T06:04:35;98890.59;;;15.54;100.00
26711;BME280;18311;52.754;18.118;2023-01-15T06:07:06;98895.23;;;15.42;100.00
26711;BME280;18311;52.754;18.118;2023-01-15T06:09:36;98892.74;;;15.70;100.00
26711;BME280;18311;52.754;18.118;2023-01-15T06:12:07;98905.30;;;14.99;100.00
26711;BME280;18311;52.754;18.118;2023-01-15T06:14:37;98886.08;;;15.64;100.00
26711;BME280;18311;52.754;18.118;2023-01-15T06:17:07;98896.77;;;15.35;100.00
26711;BME280;18311;52.754;18.118;2023-01-15T06:19:38;98900.66;;;14.80;100.00
26711;BME280;18311;52.754;18.118;2023-01-15T06:22:08;98898.71;;;14.61;100.00
26711;BME280;18311;52.754;18.118;2023-01-15T06:24:39;98898.23;;;14.77;100.00
26711;BME280;18311;52.754;18.118;2023-01-15T06:27:09;98893.00;;;15.06;100.00
26711;BME280;18311;52.754;18.118;2023-01-15T06:29:40;98892.12;;;15.06;100.00
26711;BME280;18311;52.754;18.118;2023-01-15T06:32:11;98889.39;;;15.87;100.00
26711;BME280;18311;52.754;18.118;2023-01-15T06:34:43;98889.31;;;15.58;100.00
26711;BME280;18311;52.754;18.118;2023-01-15T06:37:14;98877.24;;;17.44;100.00
26711;BME280;18311;52.754;18.118;2023-01-15T06:39:44;98899.31;;;15.96;100.00
26711;BME280;18311;52.754;18.118;2023-01-15T06:42:15;98873.87;;;15.70;100.00
26711;BME280;18311;52.754;18.118;2023-01-15T06:45:03;98889.98;;;15.40;100.00
26711;BME280;18311;52.754;18.118;2023-01-15T06:47:52;98875.19;;;15.95;100.00
26711;BME280;18311;52.754;18.118;2023-01-15T06:50:24;98870.17;;;15.71;100.00
26711;BME280;18311;52.754;18.118;2023-01-15T06:52:54;98876.68;;;15.48;100.00
26711;BME280;18311;52.754;18.118;2023-01-15T06:55:26;98869.77;;;19.75;91.20
26711;BME280;18311;52.754;18.118;2023-01-15T06:57:56;98865.27;;;18.81;97.89
26711;BME280;18311;52.754;18.118;2023-01-15T07:00:27;98871.56;;;17.65;100.00
26711;BME280;18311;52.754;18.118;2023-01-15T07:03:01;98868.35;;;17.98;100.00
26711;BME280;18311;52.754;18.118;2023-01-15T07:05:32;98862.38;;;17.03;100.00
26711;BME280;18311;52.754;18.118;2023-01-15T07:08:03;98853.09;;;18.33;100.00
26711;BME280;18311;52.754;18.118;2023-01-15T07:10:34;98850.81;;;17.10;100.00
26711;BME280;18311;52.754;18.118;2023-01-15T07:13:04;98855.00;;;17.50;100.00
26711;BME280;18311;52.754;18.118;2023-01-15T07:15:37;98858.17;;;16.90;100.00
26711;BME280;18311;52.754;18.118;2023-01-15T07:18:08;98849.46;;;17.70;100.00
26711;BME280;18311;52.754;18.118;2023-01-15T07:20:39;98839.12;;;17.83;100.00
26711;BME280;18311;52.754;18.118;2023-01-15T07:23:09;98855.33;;;17.47;100.00
26711;BME280;18311;52.754;18.118;2023-01-15T07:25:40;98847.30;;;17.73;100.00
26711;BME280;18311;52.754;18.118;2023-01-15T07:28:10;98849.42;;;18.86;100.00
26711;BME280;18311;52.754;18.118;2023-01-15T07:30:41;98862.05;;;17.61;100.00
26711;BME280;18311;52.754;18.118;2023-01-15T07:33:11;98846.72;;;17.98;100.00
26711;BME280;18311;52.754;18.118;2023-01-15T07:35:43;98840.67;;;18.22;100.00
26711;BME280;18311;52.754;18.118;2023-01-15T07:38:13;98836.55;;;17.91;100.00
26711;BME280;18311;52.754;18.118;2023-01-15T07:40:44;98839.64;;;18.67;92.53
26711;BME280;18311;52.754;18.118;2023-01-15T07:43:16;98853.99;;;17.33;100.00
26711;BME280;18311;52.754;18.118;2023-01-15T07:46:04;98842.78;;;17.28;100.00
26711;BME280;18311;52.754;18.118;2023-01-15T07:48:58;98828.25;;;18.11;100.00
26711;BME280;18311;52.754;18.118;2023-01-15T07:51:50;98838.18;;;17.39;100.00
26711;BME280;18311;52.754;18.118;2023-01-15T07:54:49;98839.96;;;17.48;100.00
26711;BME280;18311;52.754;18.118;2023-01-15T07:57:21;98849.80;;;16.84;100.00
26711;BME280;18311;52.754;18.118;2023-01-15T07:59:52;98846.74;;;16.49;100.00
26711;BME280;18311;52.754;18.118;2023-01-15T08:02:25;98831.29;;;16.51;100.00
26711;BME280;18311;52.754;18.118;2023-01-15T08:04:57;98844.69;;;16.23;100.00
26711;BME280;18311;52.754;18.118;2023-01-15T08:07:35;98848.36;;;16.32;100.00
26711;BME280;18311;52.754;18.118;2023-01-15T08:10:03;98843.11;;;16.31;100.00
26711;BME280;18311;52.754;18.118;2023-01-15T08:12:35;98831.52;;;18.41;100.00
26711;BME280;18311;52.754;18.118;2023-01-15T08:15:27;98832.77;;;16.73;100.00
26711;BME280;18311;52.754;18.118;2023-01-15T08:18:00;98832.77;;;16.07;100.00
26711;BME280;18311;52.754;18.118;2023-01-15T08:20:34;98833.92;;;17.08;100.00
26711;BME280;18311;52.754;18.118;2023-01-15T08:23:27;98841.44;;;17.60;100.00
26711;BME280;18311;52.754;18.118;2023-01-15T08:26:00;98841.00;;;16.72;100.00
26711;BME280;18311;52.754;18.118;2023-01-15T08:28:34;98839.38;;;16.51;100.00
26711;BME280;18311;52.754;18.118;2023-01-15T08:31:08;98840.41;;;16.31;100.00
26711;BME280;18311;52.754;18.118;2023-01-15T08:33:46;98838.83;;;15.60;100.00
26711;BME280;18311;52.754;18.118;2023-01-15T08:36:27;98832.78;;;16.16;100.00
26711;BME280;18311;52.754;18.118;2023-01-15T08:39:06;98852.33;;;16.95;100.00
26711;BME280;18311;52.754;18.118;2023-01-15T08:41:43;98839.95;;;16.45;100.00
26711;BME280;18311;52.754;18.118;2023-01-15T08:44:15;98842.86;;;16.04;100.00
26711;BME280;18311;52.754;18.118;2023-01-15T08:46:48;98031.47;;;16.04;100.00
26711;BME280;18311;52.754;18.118;2023-01-15T08:49:23;98833.43;;;20.91;83.20
26711;BME280;18311;52.754;18.118;2023-01-15T08:51:53;98829.58;;;18.07;100.00
26711;BME280;18311;52.754;18.118;2023-01-15T08:54:25;98829.58;;;18.07;100.00
26711;BME280;18311;52.754;18.118;2023-01-15T08:56:59;98814.27;;;19.53;100.00
26711;BME280;18311;52.754;18.118;2023-01-15T08:59:31;98814.27;;;19.53;100.00
26711;BME280;18311;52.754;18.118;2023-01-15T09:02:02;98831.36;;;18.95;100.00
26711;BME280;18311;52.754;18.118;2023-01-15T09:04:33;98839.76;;;17.31;100.00
26711;BME280;18311;52.754;18.118;2023-01-15T09:07:11;98834.47;;;17.58;100.00
26711;BME280;18311;52.754;18.118;2023-01-15T09:09:46;98803.83;;;18.21;100.00
26711;BME280;18311;52.754;18.118;2023-01-15T09:12:22;98820.05;;;17.85;100.00
26711;BME280;18311;52.754;18.118;2023-01-15T09:14:57;98820.05;;;17.85;100.00
26711;BME280;18311;52.754;18.118;2023-01-15T09:17:32;98832.64;;;17.12;100.00
26711;BME280;18311;52.754;18.118;2023-01-15T09:20:09;98818.76;;;17.89;100.00
26711;BME280;18311;52.754;18.118;2023-01-15T09:22:45;98810.17;;;18.90;100.00
26711;BME280;18311;52.754;18.118;2023-01-15T09:25:19;98811.77;;;18.48;100.00
26711;BME280;18311;52.754;18.118;2023-01-15T09:27:55;98819.36;;;17.19;100.00
26711;BME280;18311;52.754;18.118;2023-01-15T09:30:30;98815.48;;;17.85;100.00
26711;BME280;18311;52.754;18.118;2023-01-15T09:33:04;98804.97;;;17.82;100.00
26711;BME280;18311;52.754;18.118;2023-01-15T09:35:41;98787.58;;;19.91;100.00
26711;BME280;18311;52.754;18.118;2023-01-15T09:38:17;98975.38;;;18.72;100.00
26711;BME280;18311;52.754;18.118;2023-01-15T09:40:59;98808.77;;;17.71;100.00
26711;BME280;18311;52.754;18.118;2023-01-15T09:43:41;98810.27;;;18.02;100.00
26711;BME280;18311;52.754;18.118;2023-01-15T09:47:10;98798.77;;;18.20;100.00
26711;BME280;18311;52.754;18.118;2023-01-15T09:49:20;98798.77;;;18.26;100.00
26711;BME280;18311;52.754;18.118;2023-01-15T09:51:53;98822.53;;;18.14;100.00
26711;BME280;18311;52.754;18.118;2023-01-15T09:54:56;98812.94;;;17.66;100.00
26711;BME280;18311;52.754;18.118;2023-01-15T09:57:24;98812.94;;;17.66;100.00
26711;BME280;18311;52.754;18.118;2023-01-15T09:59:58;98806.03;;;16.90;100.00
26711;BME280;18311;52.754;18.118;2023-01-15T10:02:44;98806.03;;;16.90;100.00
26711;BME280;18311;52.754;18.118;2023-01-15T10:05:28;98810.78;;;17.06;100.00
26711;BME280;18311;52.754;18.118;2023-01-15T10:08:25;98819.73;;;17.52;100.00
26711;BME280;18311;52.754;18.118;2023-01-15T10:11:19;98804.41;;;19.36;100.00
26711;BME280;18311;52.754;18.118;2023-01-15T10:13:50;98804.41;;;19.36;100.00
26711;BME280;18311;52.754;18.118;2023-01-15T10:16:28;98809.17;;;18.65;100.00
26711;BME280;18311;52.754;18.118;2023-01-15T10:19:01;98800.14;;;22.83;90.19
26711;BME280;18311;52.754;18.118;2023-01-15T10:21:59;98831.46;;;19.19;100.00
26711;BME280;18311;52.754;18.118;2023-01-15T10:27:16;98832.89;;;21.04;89.45
26711;BME280;18311;52.754;18.118;2023-01-15T10:30:05;98803.28;;;23.46;67.46
26711;BME280;18311;52.754;18.118;2023-01-15T10:32:43;98810.63;;;22.41;84.09
26711;BME280;18311;52.754;18.118;2023-01-15T10:38:31;98826.05;;;19.19;100.00
26711;BME280;18311;52.754;18.118;2023-01-15T10:42:17;98826.05;;;19.19;100.00
26711;BME280;18311;52.754;18.118;2023-01-15T10:44:00;98794.17;;;16.89;100.00
26711;BME280;18311;52.754;18.118;2023-01-15T10:46:32;98831.62;;;23.00;78.48
26711;BME280;18311;52.754;18.118;2023-01-15T10:49:13;98831.62;;;23.00;78.48
26711;BME280;18311;52.754;18.118;2023-01-15T10:52:02;98883.24;;;20.43;74.36
26711;BME280;18311;52.754;18.118;2023-01-15T10:54:49;98883.24;;;20.43;74.36
26711;BME280;18311;52.754;18.118;2023-01-15T10:57:20;98909.15;;;19.96;61.60
26711;BME280;18311;52.754;18.118;2023-01-15T11:00:00;98909.15;;;19.96;61.60
26711;BME280;18311;52.754;18.118;2023-01-15T11:02:44;98911.56;;;20.93;56.54
26711;BME280;18311;52.754;18.118;2023-01-15T11:05:17;98911.56;;;20.24;57.50
26711;BME280;18311;52.754;18.118;2023-01-15T11:07:51;98922.67;;;21.19;54.25
26711;BME280;18311;52.754;18.118;2023-01-15T11:10:23;98924.94;;;21.07;54.13
26711;BME280;18311;52.754;18.118;2023-01-15T11:15:47;98922.03;;;19.94;56.73
26711;BME280;18311;52.754;18.118;2023-01-15T11:18:39;98907.11;;;20.97;54.34
26711;BME280;18311;52.754;18.118;2023-01-15T11:21:28;98913.05;;;20.02;55.95
26711;BME280;18311;52.754;18.118;2023-01-15T11:23:59;98913.11;;;21.48;52.58
26711;BME280;18311;52.754;18.118;2023-01-15T11:26:31;98922.34;;;21.22;53.07
26711;BME280;18311;52.754;18.118;2023-01-15T11:29:11;98924.63;;;21.90;50.90
26711;BME280;18311;52.754;18.118;2023-01-15T11:31:39;98917.91;;;21.77;51.29
26711;BME280;18311;52.754;18.118;2023-01-15T11:34:18;98914.64;;;21.42;52.35
26711;BME280;18311;52.754;18.118;2023-01-15T11:37:03;98919.89;;;20.71;53.03
26711;BME280;18311;52.754;18.118;2023-01-15T11:39:33;98931.59;;;20.88;53.71
26711;BME280;18311;52.754;18.118;2023-01-15T11:42:05;98927.69;;;19.66;58.09
26711;BME280;18311;52.754;18.118;2023-01-15T11:44:56;98936.02;;;19.73;60.10
26711;BME280;18311;52.754;18.118;2023-01-15T11:47:51;98939.85;;;20.05;60.28
26711;BME280;18311;52.754;18.118;2023-01-15T11:53:32;98921.58;;;20.40;56.75
26711;BME280;18311;52.754;18.118;2023-01-15T11:56:05;98896.62;;;20.62;54.82
26711;BME280;18311;52.754;18.118;2023-01-15T11:58:47;98896.62;;;20.44;54.52
26711;BME280;18311;52.754;18.118;2023-01-15T12:01:38;98933.06;;;20.09;56.40
26711;BME280;18311;52.754;18.118;2023-01-15T12:04:06;98941.22;;;18.97;62.01
26711;BME280;18311;52.754;18.118;2023-01-15T12:06:38;98941.06;;;18.99;64.03
26711;BME280;18311;52.754;18.118;2023-01-15T12:12:21;98948.44;;;19.15;60.55
26711;BME280;18311;52.754;18.118;2023-01-15T12:15:17;98958.41;;;19.40;61.27
26711;BME280;18311;52.754;18.118;2023-01-15T12:18:08;98953.41;;;18.75;66.81
26711;BME280;18311;52.754;18.118;2023-01-15T12:23:36;98961.38;;;18.77;65.03
26711;BME280;18311;52.754;18.118;2023-01-15T12:26:12;98957.30;;;18.55;69.16
26711;BME280;18311;52.754;18.118;2023-01-15T12:28:47;98968.88;;;19.35;63.52
26711;BME280;18311;52.754;18.118;2023-01-15T12:31:17;98966.80;;;18.77;65.16
26711;BME280;18311;52.754;18.118;2023-01-15T12:34:05;98974.47;;;19.08;64.19
26711;BME280;18311;52.754;18.118;2023-01-15T12:36:42;98978.92;;;18.73;65.02
26711;BME280;18311;52.754;18.118;2023-01-15T12:41:46;98984.70;;;17.50;73.83
26711;BME280;18311;52.754;18.118;2023-01-15T12:47:42;99000.03;;;18.15;68.61
26711;BME280;18311;52.754;18.118;2023-01-15T12:50:21;99001.19;;;17.95;67.96
26711;BME280;18311;52.754;18.118;2023-01-15T12:52:58;98981.09;;;17.97;64.07
26711;BME280;18311;52.754;18.118;2023-01-15T12:55:28;98981.09;;;17.97;64.07
26711;BME280;18311;52.754;18.118;2023-01-15T12:58:01;99019.30;;;18.12;60.44
26711;BME280;18311;52.754;18.118;2023-01-15T13:00:39;99035.56;;;17.65;61.94
26711;BME280;18311;52.754;18.118;2023-01-15T13:03:27;99036.38;;;17.75;62.46
26711;BME280;18311;52.754;18.118;2023-01-15T13:06:07;99037.91;;;17.87;61.06
26711;BME280;18311;52.754;18.118;2023-01-15T13:08:40;99053.34;;;17.30;64.25
26711;BME280;18311;52.754;18.118;2023-01-15T13:11:12;99055.01;;;17.78;63.51
26711;BME280;18311;52.754;18.118;2023-01-15T13:13:43;99053.43;;;17.48;64.72
26711;BME280;18311;52.754;18.118;2023-01-15T13:16:31;99057.36;;;18.01;65.08
26711;BME280;18311;52.754;18.118;2023-01-15T13:21:50;99046.83;;;18.43;56.77
26711;BME280;18311;52.754;18.118;2023-01-15T13:24:39;99051.28;;;17.51;62.81
26711;BME280;18311;52.754;18.118;2023-01-15T13:32:46;99049.28;;;17.91;59.80
26711;BME280;18311;52.754;18.118;2023-01-15T13:35:31;99056.79;;;17.03;59.92
26711;BME280;18311;52.754;18.118;2023-01-15T13:38:03;99053.80;;;16.57;69.52
26711;BME280;18311;52.754;18.118;2023-01-15T13:40:42;99063.93;;;17.98;57.70
26711;BME280;18311;52.754;18.118;2023-01-15T13:43:25;99051.09;;;18.64;55.49
26711;BME280;18311;52.754;18.118;2023-01-15T13:45:54;99062.30;;;17.21;58.83
26711;BME280;18311;52.754;18.118;2023-01-15T13:48:34;99060.67;;;17.85;56.84
26711;BME280;18311;52.754;18.118;2023-01-15T13:51:06;99057.95;;;16.90;62.48
26711;BME280;18311;52.754;18.118;2023-01-15T13:53:46;99059.35;;;16.94;58.77
26711;BME280;18311;52.754;18.118;2023-01-15T13:56:32;99064.75;;;16.94;61.91
26711;BME280;18311;52.754;18.118;2023-01-15T13:59:24;99062.62;;;16.69;62.24
26711;BME280;18311;52.754;18.118;2023-01-15T14:01:37;99064.03;;;16.73;61.72
26711;BME280;18311;52.754;18.118;2023-01-15T14:04:13;99052.44;;;16.02;64.36
26711;BME280;18311;52.754;18.118;2023-01-15T14:23:38;99062.91;;;15.96;67.47
26711;BME280;18311;52.754;18.118;2023-01-15T14:28:55;99074.70;;;15.01;70.19
26711;BME280;18311;52.754;18.118;2023-01-15T14:34:16;99068.09;;;15.57;67.84
26711;BME280;18311;52.754;18.118;2023-01-15T14:36:52;99072.47;;;15.27;72.21
26711;BME280;18311;52.754;18.118;2023-01-15T14:39:31;99070.23;;;14.58;74.72
26711;BME280;18311;52.754;18.118;2023-01-15T14:42:23;99063.73;;;15.65;70.69